Terminal Aerodrome Forecast
Issued by NWS

Home | Current Version | Previous Version | Text Only | Print | Product List | Glossary On
Versions: 1 2 3 4 5 6 7 8 9 10 11 12 13 14 15 16 17 18 19 20 21 22 23 24 25 26 27 28 29 30 31 32 33 34 35 36
000
FTUS43 KGLD 302351 CCA
TAFMCK
TAF COR
KMCK 302351Z 0100/0124 35011KT P6SM -RA OVC015
      TEMPO 0101/0103 P6SM -SHRA OVC007
     FM010600 34015G23KT P6SM VCSH OVC005
     FM011400 35014G19KT P6SM OVC008
     FM011800 36015G21KT P6SM OVC015
     FM012200 01014G21KT P6SM OVC025=

USA.gov is the U.S. government's official web portal to all federal, state and local government web resources and services.